Historique des mesures à Cassis (13260), France
Quotidien Résumé Fevrier 8, 2018 Unités:  Métrique    US   Métrique/US
« Précédent (Jour)
Suivant (Jour) »
Quotidien Hebdomadaire Mensuel Annuel Période au choix
  Maximum: Minimum: Moyenne:
Température: TemperatureC °C 2.4 °C 4.3 °C
Point de rosée: DewpointC °C -3.7 °C -1.7 °C
Humidité: Humidity % 59 % 61 %
Vitesse du vent: 0 km/h 0 km/h 15 km/h
Rafales: 0 km/h - -
Vent:- - West
Pression: PressurehPa hPa 1010.4 hPa -
Précipitations: 0 mm    
Historical Graphs
 
 
Mesures pour : Fevrier 8, 2018
Heure Temperature Point de rosée Pression Vent Vitesse du vent Rafales Humidité Pluie (par heure)
TemperatureC °C DewpointC °C PressurehPa hPa Calm     Humidity % 0 mm
00:12 2.9 °C -3.7 °C 1010.4 hPa NNW 26.2 km/h 30.7 km/h 62 % 0 mm
01:12 2.9 °C -3.4 °C 1010.4 hPa NNW 17.9 km/h 27.7 km/h 63 % 0 mm
02:12 2.9 °C -3.7 °C 1010.7 hPa West 21.6 km/h 36.5 km/h 62 % 0 mm
03:12 2.9 °C -3.4 °C 1010.7 hPa WNW 20.9 km/h 54.9 km/h 63 % 0 mm
04:12 2.7 °C -3.2 °C 1010.4 hPa WNW 35.2 km/h 35.2 km/h 65 % 0 mm
05:12 2.6 °C -3.1 °C 1010.7 hPa NW 19.6 km/h 39.9 km/h 66 % 0 mm
06:12 2.6 °C -2.9 °C 1011.4 hPa WNW 6.4 km/h 11.6 km/h 67 % 0 mm
07:12 2.4 °C -2.9 °C 1011.1 hPa WNW 21.6 km/h 21.6 km/h 68 % 0 mm
08:12 2.5 °C -2.6 °C 1012.1 hPa WNW 11.6 km/h 12.2 km/h 69 % 0 mm
09:12 2.9 °C -2.2 °C 1012.4 hPa West 9.8 km/h 10.9 km/h 69 % 0 mm
10:12 3.5 °C -1.7 °C 1012.4 hPa NNW 34.8 km/h 34.8 km/h 69 % 0 mm
11:12 4.4 °C -1.2 °C 1013.1 hPa WNW 22.5 km/h 22.5 km/h 67 % 0 mm
12:12 5.4 °C -0.9 °C 1013.1 hPa NW 9.8 km/h 15 km/h 64 % 0 mm
13:12 6.3 °C -0.3 °C 1012.4 hPa NW 6.4 km/h 29 km/h 63 % 0 mm
14:12 7.0 °C -0.2 °C 1012.1 hPa WNW 38.8 km/h 38.8 km/h 60 % 0 mm
15:12 7.8 °C 0.3 °C 1011.7 hPa NNW 23 km/h 42.2 km/h 59 % 0 mm
16:12 7.8 °C 0.3 °C 1012.4 hPa North 5.6 km/h 30.7 km/h 59 % 0 mm
17:12 7.2 °C 0.1 °C 1012.8 hPa North 12.2 km/h 12.7 km/h 60 % 0 mm
18:12 6.1 °C -0.7 °C 1013.1 hPa NNW 8 km/h 14.5 km/h 62 % 0 mm
19:12 5.6 °C -1.1 °C 1014.1 hPa NNW 11.6 km/h 19.6 km/h 62 % 0 mm
20:12 5.8 °C -1.6 °C 1014.1 hPa West 5.1 km/h 9.8 km/h 59 % 0 mm
21:12 5.1 °C -1.2 °C 1014.4 hPa SE 3.4 km/h 3.4 km/h 64 % 0 mm
22:12 4.8 °C -1.2 °C 1014.4 hPa Calm     65 % 0 mm
23:12 3.9 °C -1.7 °C 1014.1 hPa Calm     67 % 0 mm
Observations météo à CASSIS
WU-History script by Weather Underground - 1 mb